Time;durP1;ratioP1;P1;durP2;ratioP2;P2;SDS_P1;SDS_P2;PMS_P1;PMS_P2;Temp;Humidity;BMP_temperature;BMP_pressure;BME280_temperature;BME280_humidity;BME280_pressure;Samples;Min_cycle;Max_cycle;Signal;HPM_P1;HPM_P2
2024/02/12 06:43:20;;;;;;;11.35;7.13;;;;;;;;;;10500038;28;20915;-83
2024/02/12 06:48:23;;;;;;;7.40;5.43;;;;;;;;;;10536502;28;20068;-83
2024/02/12 06:54:20;;;;;;;9.98;6.93;;;;;;;;;;10520882;28;20037;-84
2024/02/12 06:59:32;;;;;;;6.50;5.30;;;;;;;;;;10534985;28;20039;-84
2024/02/12 07:04:40;;;;;;;6.47;4.78;;;;;;;;;;10512833;28;20039;-84
2024/02/12 07:10:05;;;;;;;7.10;5.15;;;;;;;;;;10529575;28;20024;-84
2024/02/12 07:15:21;;;;;;;11.05;8.40;;;;;;;;;;10528012;28;20028;-84
2024/02/12 07:26:37;;;;;;;7.38;5.95;;;;;;;;;;10550028;28;20052;-84
2024/02/12 07:31:56;;;;;;;5.47;4.72;;;;;;;;;;10540313;28;20053;-84
2024/02/12 07:37:11;;;;;;;5.43;4.22;;;;;;;;;;10550166;28;20040;-85
2024/02/12 07:42:17;;;;;;;6.72;5.55;;;;;;;;;;10545813;28;20099;-85
2024/02/12 07:47:23;;;;;;;6.07;4.72;;;;;;;;;;10526320;28;20024;-85
2024/02/12 07:52:42;;;;;;;8.18;6.50;;;;;;;;;;10498763;28;20063;-85
2024/02/12 07:57:58;;;;;;;7.32;5.28;;;;;;;;;;10496681;28;20021;-85
2024/02/12 08:03:02;;;;;;;9.95;8.23;;;;;;;;;;10510994;28;20036;-85
2024/02/12 08:54:06;;;;;;;11.13;8.88;;;;;;;;;;10404715;28;20044;-84
2024/02/12 09:21:49;;;;;;;10.93;8.18;;;;;;;;;;10506823;28;20024;-84
2024/02/12 09:26:52;;;;;;;9.90;6.20;;;;;;;;;;10493466;28;20400;-85
2024/02/12 09:32:14;;;;;;;6.80;5.75;;;;;;;;;;10492570;28;20488;-84
2024/02/12 09:37:18;;;;;;;7.93;6.32;;;;;;;;;;10505198;28;20051;-84
2024/02/12 09:42:21;;;;;;;10.13;6.40;;;;;;;;;;10508483;28;20016;-84
2024/02/12 09:47:22;;;;;;;10.73;7.53;;;;;;;;;;10527860;28;20021;-84
2024/02/12 09:52:26;;;;;;;11.38;8.88;;;;;;;;;;10511539;28;20044;-84
2024/02/12 09:57:27;;;;;;;17.83;13.90;;;;;;;;;;10491889;28;20142;-83
2024/02/12 10:02:35;;;;;;;14.80;11.15;;;;;;;;;;10500679;28;20115;-83
2024/02/12 10:07:46;;;;;;;9.00;6.40;;;;;;;;;;10510758;28;20032;-83
2024/02/12 10:12:54;;;;;;;10.00;7.63;;;;;;;;;;10528048;28;20088;-84
2024/02/12 10:17:55;;;;;;;8.40;6.32;;;;;;;;;;10529375;28;20043;-84
2024/02/12 10:22:57;;;;;;;9.55;6.25;;;;;;;;;;10547371;28;20024;-84
2024/02/12 10:27:58;;;;;;;8.63;6.88;;;;;;;;;;10524949;28;20050;-84
2024/02/12 10:33:05;;;;;;;7.63;5.47;;;;;;;;;;10557354;28;20047;-83
2024/02/12 10:38:09;;;;;;;5.60;4.90;;;;;;;;;;10545030;28;20004;-85
2024/02/12 10:43:14;;;;;;;6.38;4.80;;;;;;;;;;10532062;28;20491;-84
2024/02/12 10:48:16;;;;;;;9.77;8.52;;;;;;;;;;10532554;28;20067;-84
2024/02/12 10:53:17;;;;;;;6.75;5.32;;;;;;;;;;10553360;28;20016;-84
2024/02/12 10:58:18;;;;;;;11.73;9.48;;;;;;;;;;10535749;28;20016;-84
2024/02/12 11:03:28;;;;;;;11.40;7.00;;;;;;;;;;10535506;28;20020;-84
2024/02/12 11:08:29;;;;;;;9.48;7.60;;;;;;;;;;10536203;28;20063;-83
2024/02/12 11:13:34;;;;;;;7.28;5.93;;;;;;;;;;10548471;28;20039;-84
2024/02/12 11:18:37;;;;;;;8.45;6.93;;;;;;;;;;10553809;28;20035;-84
2024/02/12 11:23:41;;;;;;;7.63;6.15;;;;;;;;;;10533407;28;20398;-83
2024/02/12 11:28:48;;;;;;;7.47;6.00;;;;;;;;;;10539949;28;20035;-83
2024/02/12 11:33:49;;;;;;;8.15;5.88;;;;;;;;;;10549942;28;20020;-83
2024/02/12 11:38:50;;;;;;;11.07;9.57;;;;;;;;;;10571226;28;20054;-83
2024/02/12 11:43:52;;;;;;;9.13;6.13;;;;;;;;;;10547235;28;20028;-83
2024/02/12 11:49:09;;;;;;;10.52;7.40;;;;;;;;;;10554899;28;20024;-84
2024/02/12 11:54:13;;;;;;;10.30;7.90;;;;;;;;;;10549679;28;20142;-84
2024/02/12 11:59:14;;;;;;;9.32;6.53;;;;;;;;;;10559353;28;20103;-84
2024/02/12 12:04:19;;;;;;;6.15;4.38;;;;;;;;;;10537894;28;20024;-83
2024/02/12 12:10:01;;;;;;;7.65;5.70;;;;;;;;;;10552584;28;20480;-86
2024/02/12 12:37:19;;;;;;;11.98;9.30;;;;;;;;;;10505273;28;20028;-86
2024/02/12 12:42:51;;;;;;;9.95;7.30;;;;;;;;;;10489573;28;20032;-86
2024/02/12 12:48:09;;;;;;;8.80;5.32;;;;;;;;;;10493111;28;20036;-89
2024/02/12 14:52:27;;;;;;;5.47;4.38;;;;;;;;;;10385942;28;20026;-85
2024/02/12 15:26:13;;;;;;;5.07;4.28;;;;;;;;;;10387875;28;20030;-85
2024/02/12 15:42:07;;;;;;;4.32;3.17;;;;;;;;;;10513149;28;20032;-86
2024/02/12 16:10:26;;;;;;;4.68;3.40;;;;;;;;;;10519689;28;20115;-86
2024/02/12 17:01:33;;;;;;;2.97;2.47;;;;;;;;;;10523915;28;20033;-86
2024/02/12 17:07:30;;;;;;;3.95;2.60;;;;;;;;;;10460048;28;20018;-85
2024/02/12 17:12:52;;;;;;;3.15;2.70;;;;;;;;;;10281795;28;20044;-85
2024/02/12 17:18:13;;;;;;;4.45;2.50;;;;;;;;;;10264174;29;20110;-86
2024/02/12 17:29:16;;;;;;;4.10;3.13;;;;;;;;;;10321199;28;20064;-86
2024/02/12 17:51:31;;;;;;;3.42;2.40;;;;;;;;;;10266605;28;20535;-87
2024/02/12 18:36:31;;;;;;;2.88;1.90;;;;;;;;;;10517697;28;20032;-85
2024/02/12 18:41:59;;;;;;;2.65;2.10;;;;;;;;;;10466043;28;20078;-85
2024/02/12 18:47:35;;;;;;;2.35;1.90;;;;;;;;;;10466498;28;20068;-85
2024/02/12 18:58:52;;;;;;;2.60;1.70;;;;;;;;;;10466736;28;20044;-85
2024/02/12 19:04:40;;;;;;;3.22;2.08;;;;;;;;;;10423013;28;20125;-85
